LFKB

Bastia-Poretta Airport

Bastia/Poretta, France
TAF LFKB 190800Z 1909/2009 12006KT CAVOK TX24/1912Z TN14/2004Z BECMG 1918/1920 24004KT
Issued Valid From Valid To
Oct-19 @ 08:00 UTC
(an hour ago)
Oct-19 @ 09:00 UTC
(6 minutes ago)
Oct-20 @ 09:00 UTC
(in 24 hours)
Oct-19 @ 09:00 to Oct-19 @ 18:00
TAF LFKB 190800Z 1909/2009 12006KT CAVOK TX24/1912Z TN14/2004Z
Wind Visibility Clouds
120° at 6 knots 10,000+ meters
  • No significant clouds
Becoming Oct-19 @ 18:00 to Oct-20 @ 09:00
BECMG 1918/1920 24004KT
Wind Visibility Clouds
240° at 4 knots 10,000+ meters
  • No significant clouds
TAF LFKB 190800Z 1909/2009 12006KT CAVOK TX24/1912Z TN14/2004Z BECMG 1918/1920 24004KT
Issued Oct-19 @ 08:00 UTC
(an hour ago)
Valid From Oct-19 @ 09:00 UTC
(6 minutes ago)
Valid To Oct-20 @ 09:00 UTC
(in 24 hours)
Oct-19 @ 09:00 - Oct-19 @ 18:00
Wind Visibility
120° at 6 knots 10,000+ meters
Clouds
  • No significant clouds
Becoming Oct-19 @ 18:00 - Oct-20 @ 09:00
Wind Visibility
240° at 4 knots 10,000+ meters
Clouds
  • No significant clouds